Time;durP1;ratioP1;P1;durP2;ratioP2;P2;SDS_P1;SDS_P2;PMS_P1;PMS_P2;Temp;Humidity;BMP_temperature;BMP_pressure;BME280_temperature;BME280_humidity;BME280_pressure;Samples;Min_cycle;Max_cycle;Signal;HPM_P1;HPM_P2
2024/02/21 00:00:32;;;;;;;12.30;6.75;;;;;;;6.83;73.00;101461.44;2514039;28;20047;-81
2024/02/21 00:01:46;;;;;;;9.60;5.03;;;;;;;6.84;72.85;101464.06;2514929;28;20125;-81
2024/02/21 00:03:02;;;;;;;14.45;6.22;;;;;;;6.84;72.87;101457.97;2506973;28;20054;-81
2024/02/21 00:04:16;;;;;;;19.85;5.80;;;;;;;6.84;72.84;101461.47;2514117;28;20047;-81
2024/02/21 00:05:30;;;;;;;16.90;6.20;;;;;;;6.84;72.94;101456.28;2510741;28;20077;-81
2024/02/21 00:06:45;;;;;;;21.15;7.72;;;;;;;6.83;72.57;101448.44;2511217;28;20054;-80
2024/02/21 00:07:59;;;;;;;10.77;7.20;;;;;;;6.84;72.55;101453.69;2514247;28;20054;-81
2024/02/21 00:09:13;;;;;;;14.48;5.80;;;;;;;6.83;72.83;101445.84;2506945;28;20478;-81
2024/02/21 00:10:26;;;;;;;9.30;5.07;;;;;;;6.83;72.85;101451.91;2514863;28;20503;-81
2024/02/21 00:11:42;;;;;;;17.50;6.03;;;;;;;6.83;72.49;101451.91;2514317;28;20045;-81
2024/02/21 00:12:56;;;;;;;10.05;5.35;;;;;;;6.83;72.85;101453.66;2514567;28;20046;-81
2024/02/21 00:14:10;;;;;;;12.52;5.50;;;;;;;6.83;72.68;101454.50;2516229;28;20077;-81
2024/02/21 00:15:24;;;;;;;16.75;5.88;;;;;;;6.83;72.57;101441.53;2517165;28;20102;-81
2024/02/21 00:16:38;;;;;;;11.70;6.50;;;;;;;6.83;72.72;101443.25;2515991;28;20050;-81
2024/02/21 00:17:52;;;;;;;13.50;5.82;;;;;;;6.82;72.65;101432.03;2516366;28;20078;-79
2024/02/21 00:19:06;;;;;;;17.42;5.70;;;;;;;6.82;72.58;101436.34;2516176;28;20125;-80
2024/02/21 00:20:20;;;;;;;18.80;7.00;;;;;;;6.81;72.52;101425.06;2509466;28;20046;-80
2024/02/21 00:21:34;;;;;;;8.57;5.43;;;;;;;6.81;72.56;101426.78;2512369;28;20122;-80
2024/02/21 00:22:47;;;;;;;9.60;5.97;;;;;;;6.80;72.49;101428.50;2513041;28;20499;-80
2024/02/21 00:24:02;;;;;;;18.13;7.15;;;;;;;6.81;72.33;101422.47;2508406;28;20106;-81
2024/02/21 00:25:15;;;;;;;18.23;5.20;;;;;;;6.81;72.44;101409.50;2514936;28;20058;-80
2024/02/21 00:26:30;;;;;;;8.40;4.75;;;;;;;6.82;72.33;101424.22;2510686;28;20488;-81
2024/02/21 00:27:45;;;;;;;17.98;6.30;;;;;;;6.83;72.55;101425.09;2519481;28;20054;-79
2024/02/21 00:28:59;;;;;;;14.00;6.82;;;;;;;6.84;72.26;101425.16;2518125;28;20523;-80
2024/02/21 00:30:13;;;;;;;8.63;4.30;;;;;;;6.85;72.12;101429.47;2514840;28;20043;-81
2024/02/21 00:31:26;;;;;;;12.40;4.55;;;;;;;6.88;71.96;101426.06;2510185;28;20121;-79
2024/02/21 00:32:40;;;;;;;7.95;4.72;;;;;;;6.89;71.82;101426.09;2515922;28;20057;-80
2024/02/21 00:33:54;;;;;;;15.30;6.22;;;;;;;6.91;71.93;101421.78;2516910;28;20061;-80
2024/02/21 00:35:09;;;;;;;10.13;5.18;;;;;;;6.92;71.75;101418.38;2516804;28;20048;-80
2024/02/21 00:36:22;;;;;;;12.95;5.50;;;;;;;6.93;71.75;101420.09;2515879;28;20042;-80
2024/02/21 00:37:37;;;;;;;12.32;5.47;;;;;;;6.95;71.64;101427.94;2512601;28;20046;-80
2024/02/21 00:38:50;;;;;;;14.02;5.53;;;;;;;6.96;71.53;101414.97;2512842;28;20050;-81
2024/02/21 00:40:06;;;;;;;12.18;4.43;;;;;;;6.98;71.49;101415.00;2516006;28;20052;-81
2024/02/21 00:41:19;;;;;;;14.50;4.53;;;;;;;6.99;71.28;101412.44;2514294;28;20125;-80
2024/02/21 00:42:34;;;;;;;11.68;5.90;;;;;;;7.00;71.38;101410.72;2511289;28;20643;-81
2024/02/21 00:43:50;;;;;;;7.10;4.20;;;;;;;7.01;71.01;101416.78;2516447;28;20085;-80
2024/02/21 00:45:05;;;;;;;7.43;4.57;;;;;;;7.02;71.11;101402.94;2517711;28;20148;-81
2024/02/21 00:46:18;;;;;;;11.88;4.97;;;;;;;7.04;70.95;101406.47;2515388;28;20050;-81
2024/02/21 00:47:33;;;;;;;11.43;4.88;;;;;;;7.04;71.05;101396.94;2516957;28;20134;-82
2024/02/21 00:48:46;;;;;;;11.80;5.15;;;;;;;7.06;70.91;101395.25;2516796;28;20046;-80
2024/02/21 00:50:01;;;;;;;12.40;3.83;;;;;;;7.08;70.91;101395.28;2509285;28;20479;-80
2024/02/21 00:51:14;;;;;;;10.57;3.97;;;;;;;7.09;70.80;101391.84;2515813;28;20042;-81
2024/02/21 00:52:28;;;;;;;11.98;4.70;;;;;;;7.11;70.56;101390.16;2512098;28;20122;-80
2024/02/21 00:53:42;;;;;;;13.52;5.80;;;;;;;7.12;70.33;101390.16;2512183;28;20058;-79
2024/02/21 00:54:57;;;;;;;11.73;3.75;;;;;;;7.15;70.30;101391.94;2516750;28;20056;-81
2024/02/21 00:56:10;;;;;;;8.13;4.88;;;;;;;7.15;70.37;101390.25;2514837;28;20034;-81
2024/02/21 00:57:25;;;;;;;9.98;4.97;;;;;;;7.17;70.47;101388.50;2509977;28;20125;-80
2024/02/21 00:58:38;;;;;;;13.55;4.65;;;;;;;7.18;70.48;101384.22;2517098;28;20043;-81
2024/02/21 00:59:54;;;;;;;10.88;4.47;;;;;;;7.18;70.56;101390.28;2516481;28;20132;-79
2024/02/21 01:01:07;;;;;;;7.80;4.35;;;;;;;7.20;70.58;101387.69;2516988;28;20072;-79
2024/02/21 01:02:22;;;;;;;12.02;4.35;;;;;;;7.21;70.41;101384.28;2514658;28;20456;-79
2024/02/21 01:03:36;;;;;;;6.15;4.53;;;;;;;7.21;70.58;101381.66;2511418;28;20433;-79
2024/02/21 01:04:50;;;;;;;12.77;5.07;;;;;;;7.22;70.71;101380.81;2509888;28;20057;-79
2024/02/21 01:06:04;;;;;;;14.13;4.72;;;;;;;7.20;70.71;101375.63;2514622;28;20050;-78
2024/02/21 01:07:18;;;;;;;10.48;5.50;;;;;;;7.18;70.94;101371.25;2515853;28;20137;-79
2024/02/21 01:08:32;;;;;;;9.43;4.93;;;;;;;7.16;71.08;101370.34;2515863;28;20085;-80
2024/02/21 01:09:46;;;;;;;14.70;6.13;;;;;;;7.13;71.38;101370.28;2515977;28;20419;-77
2024/02/21 01:11:00;;;;;;;15.35;5.10;;;;;;;7.10;71.61;101367.63;2515893;28;20069;-79
2024/02/21 01:12:14;;;;;;;11.68;4.72;;;;;;;7.05;72.00;101367.56;2516349;28;20475;-81
2024/02/21 01:13:27;;;;;;;11.68;5.25;;;;;;;7.01;72.17;101360.56;2517195;28;20484;-81
2024/02/21 01:14:42;;;;;;;9.35;4.15;;;;;;;6.97;72.66;101361.38;2511683;28;20134;-81
2024/02/21 01:15:57;;;;;;;14.32;4.43;;;;;;;6.91;72.85;101346.53;2506140;28;20504;-81
2024/02/21 01:17:11;;;;;;;19.88;5.28;;;;;;;6.86;73.27;101344.72;2514967;28;20050;-81
2024/02/21 01:18:25;;;;;;;10.68;3.95;;;;;;;6.78;73.38;101337.66;2510171;28;20050;-81
2024/02/21 01:19:39;;;;;;;10.20;6.15;;;;;;;6.73;74.02;101344.50;2511647;28;20053;-80
2024/02/21 01:20:53;;;;;;;13.82;5.72;;;;;;;6.68;74.21;101348.72;2512167;28;20069;-80
2024/02/21 01:22:07;;;;;;;12.93;5.20;;;;;;;6.64;74.48;101351.25;2507244;28;20085;-80
2024/02/21 01:23:20;;;;;;;14.32;5.80;;;;;;;6.59;74.85;101339.91;2515129;28;20050;-80
2024/02/21 01:24:35;;;;;;;10.48;5.22;;;;;;;6.55;75.22;101342.44;2514387;28;20081;-80
2024/02/21 01:25:48;;;;;;;15.00;5.63;;;;;;;6.53;75.59;101341.56;2515615;28;20065;-81
2024/02/21 01:27:03;;;;;;;11.32;5.25;;;;;;;6.51;75.62;101337.19;2514365;28;20050;-80
2024/02/21 01:28:16;;;;;;;13.10;7.47;;;;;;;6.48;75.97;101330.22;2512491;28;20034;-80
2024/02/21 01:29:31;;;;;;;13.55;5.18;;;;;;;6.45;76.19;101327.53;2507953;28;20060;-80
2024/02/21 01:30:44;;;;;;;15.55;7.43;;;;;;;6.44;76.38;101320.63;2514972;28;20046;-81
2024/02/21 01:32:00;;;;;;;12.07;5.38;;;;;;;6.42;76.49;101327.50;2515344;28;20053;-80
2024/02/21 01:33:13;;;;;;;11.15;5.15;;;;;;;6.40;76.54;101323.13;2514641;28;20046;-80
2024/02/21 01:34:28;;;;;;;14.05;5.20;;;;;;;6.40;77.06;101326.59;2515673;28;20138;-80
2024/02/21 01:35:42;;;;;;;13.02;5.43;;;;;;;6.40;76.98;101323.13;2512701;28;20412;-80
2024/02/21 01:36:56;;;;;;;9.70;5.03;;;;;;;6.40;77.04;101329.19;2516535;28;20052;-80
2024/02/21 01:38:10;;;;;;;12.20;4.65;;;;;;;6.39;77.57;101311.88;2515898;28;20054;-80
2024/02/21 01:39:24;;;;;;;15.25;6.43;;;;;;;6.40;77.54;101312.75;2508742;28;20292;-80
2024/02/21 01:40:38;;;;;;;14.27;5.20;;;;;;;6.40;77.71;101297.19;2511093;28;20054;-80
2024/02/21 01:41:52;;;;;;;11.80;5.18;;;;;;;6.39;77.77;101301.50;2512695;28;20471;-79
2024/02/21 01:43:15;;;;;;;18.08;5.07;;;;;;;6.38;77.48;101297.19;2515456;28;20046;-80
2024/02/21 01:44:29;;;;;;;;;;;;;;;6.37;77.46;101291.94;2505472;28;20046;-80
2024/02/21 01:45:43;;;;;;;16.13;5.75;;;;;;;6.32;77.51;101297.94;2506604;28;19934;-81
2024/02/21 01:46:58;;;;;;;13.80;4.80;;;;;;;6.32;77.79;101303.13;2506382;28;20231;-80
2024/02/21 01:48:13;;;;;;;12.15;5.63;;;;;;;6.31;77.83;101303.94;2506533;28;20047;-80
2024/02/21 01:49:27;;;;;;;11.50;4.68;;;;;;;6.31;77.89;101298.78;2515370;28;20114;-80
2024/02/21 01:50:41;;;;;;;11.25;4.72;;;;;;;6.32;78.01;101310.91;2516098;28;20042;-81
2024/02/21 01:51:55;;;;;;;16.83;4.40;;;;;;;6.33;78.34;101314.38;2514630;28;20102;-81
2024/02/21 01:53:09;;;;;;;20.55;5.93;;;;;;;6.31;78.02;101309.13;2516191;28;20053;-80
2024/02/21 01:54:24;;;;;;;11.25;7.57;;;;;;;6.32;78.25;101320.38;2514333;28;20216;-81
2024/02/21 01:55:37;;;;;;;10.25;6.30;;;;;;;6.32;78.41;101315.19;2509835;28;20058;-80
2024/02/21 01:56:52;;;;;;;18.52;5.63;;;;;;;6.32;78.25;101308.31;2515577;28;20050;-79
2024/02/21 01:58:05;;;;;;;13.50;4.85;;;;;;;6.33;78.37;101311.78;2516414;28;20135;-80
2024/02/21 01:59:20;;;;;;;9.75;4.55;;;;;;;6.34;78.29;101303.13;2517063;28;20058;-81
2024/02/21 02:00:34;;;;;;;6.93;5.32;;;;;;;6.35;78.38;101304.91;2515409;28;20034;-81
2024/02/21 02:01:48;;;;;;;13.30;5.00;;;;;;;6.34;78.18;101303.13;2509874;28;20129;-80
2024/02/21 02:03:02;;;;;;;15.18;5.75;;;;;;;6.36;78.54;101305.78;2505782;28;20074;-80
2024/02/21 02:04:18;;;;;;;17.42;6.18;;;;;;;6.34;78.35;101298.81;2513997;28;20046;-80
2024/02/21 02:05:32;;;;;;;13.43;5.72;;;;;;;6.34;78.51;101305.72;2515051;28;20069;-80
2024/02/21 02:06:47;;;;;;;15.82;5.10;;;;;;;6.34;78.39;101309.19;2515260;28;20054;-81
2024/02/21 02:08:00;;;;;;;13.02;5.10;;;;;;;6.34;78.20;101313.50;2507470;28;20484;-81
2024/02/21 02:09:15;;;;;;;8.35;5.38;;;;;;;6.34;78.31;101313.50;2506393;28;20049;-81
2024/02/21 02:10:28;;;;;;;19.90;5.80;;;;;;;6.32;78.34;101304.81;2515341;28;20046;-81
2024/02/21 02:11:43;;;;;;;8.25;4.10;;;;;;;6.32;78.64;101310.00;2514915;28;20058;-81
2024/02/21 02:12:57;;;;;;;11.98;4.95;;;;;;;6.29;78.33;101305.63;2515128;28;20073;-81
2024/02/21 02:14:11;;;;;;;12.18;5.95;;;;;;;6.30;78.66;101301.34;2514716;28;20050;-80
2024/02/21 02:15:24;;;;;;;13.60;6.53;;;;;;;6.28;78.76;101298.72;2508016;28;20047;-80
2024/02/21 02:16:39;;;;;;;12.32;5.97;;;;;;;6.28;78.78;101303.03;2510592;28;20053;-81
2024/02/21 02:17:52;;;;;;;11.50;4.93;;;;;;;6.25;78.87;101293.47;2511417;28;20061;-81
2024/02/21 02:19:07;;;;;;;19.27;6.50;;;;;;;6.24;78.87;101304.66;2515156;28;20121;-80
2024/02/21 02:20:21;;;;;;;21.85;7.25;;;;;;;6.22;78.81;101300.31;2506911;28;20073;-81
2024/02/21 02:21:40;;;;;;;13.25;6.32;;;;;;;6.21;79.03;101298.56;2515160;28;20114;-81
2024/02/21 02:22:54;;;;;;;15.30;6.95;;;;;;;6.20;79.05;101289.06;2514408;28;20422;-81
2024/02/21 02:24:10;;;;;;;8.02;5.55;;;;;;;6.19;78.88;101288.16;2514240;28;20042;-81
2024/02/21 02:25:23;;;;;;;10.25;5.45;;;;;;;6.20;79.14;101283.88;2507580;28;20062;-81
2024/02/21 02:26:38;;;;;;;14.60;5.70;;;;;;;6.19;78.99;101288.16;2515440;28;20125;-81
2024/02/21 02:27:52;;;;;;;10.18;5.97;;;;;;;6.17;79.10;101283.78;2508839;28;20082;-81
2024/02/21 02:29:06;;;;;;;8.85;4.80;;;;;;;6.18;79.32;101290.75;2505229;28;20054;-80
2024/02/21 02:30:20;;;;;;;12.57;5.72;;;;;;;6.17;79.41;101292.47;2507388;28;20047;-80
2024/02/21 02:31:35;;;;;;;11.13;5.20;;;;;;;6.17;79.33;101291.56;2515654;28;20478;-80
2024/02/21 02:32:48;;;;;;;11.50;7.65;;;;;;;6.17;79.39;101288.97;2515188;28;20100;-79
2024/02/21 02:34:03;;;;;;;14.23;5.70;;;;;;;6.17;79.59;101283.78;2515742;28;20050;-80
2024/02/21 02:35:16;;;;;;;14.23;6.35;;;;;;;6.18;79.51;101275.19;2514547;28;20535;-81
2024/02/21 02:36:31;;;;;;;18.25;5.53;;;;;;;6.18;79.51;101270.00;2505218;28;20103;-81
2024/02/21 02:37:49;;;;;;;12.55;6.18;;;;;;;6.20;79.59;101265.72;2511190;28;20054;-80
2024/02/21 02:39:03;;;;;;;12.57;7.75;;;;;;;6.18;79.61;101265.69;2516072;28;20129;-80
2024/02/21 02:40:18;;;;;;;11.82;5.80;;;;;;;6.18;79.34;101260.50;2515286;28;20049;-80
2024/02/21 02:41:35;;;;;;;11.00;5.25;;;;;;;6.20;79.59;101257.94;2516683;28;20054;-80
2024/02/21 02:42:49;;;;;;;12.98;5.10;;;;;;;6.21;79.83;101249.31;2516868;28;20057;-80
2024/02/21 02:44:04;;;;;;;23.23;6.32;;;;;;;6.20;79.36;101251.03;2511419;28;20172;-80
2024/02/21 02:45:18;;;;;;;13.73;4.68;;;;;;;6.19;79.33;101251.00;2516479;28;20488;-78
2024/02/21 02:46:32;;;;;;;13.73;6.07;;;;;;;6.19;79.25;101251.00;2516411;28;20049;-79
2024/02/21 02:47:46;;;;;;;11.75;4.95;;;;;;;6.18;79.37;101260.50;2515780;28;20054;-79
2024/02/21 02:49:00;;;;;;;11.13;4.57;;;;;;;6.18;79.41;101264.81;2515841;28;20053;-79
2024/02/21 02:50:14;;;;;;;13.73;5.57;;;;;;;6.17;79.21;101263.94;2515376;28;20051;-79
2024/02/21 02:51:28;;;;;;;9.05;4.97;;;;;;;6.18;78.84;101267.41;2515538;28;20089;-78
2024/02/21 02:52:42;;;;;;;12.20;5.15;;;;;;;6.16;79.17;101254.41;2510185;28;20068;-79
2024/02/21 02:53:57;;;;;;;8.50;4.85;;;;;;;6.15;78.87;101241.44;2505259;28;20141;-79
2024/02/21 02:55:10;;;;;;;15.32;5.50;;;;;;;6.14;79.17;101239.69;2513571;28;20062;-80
2024/02/21 02:56:26;;;;;;;14.07;7.00;;;;;;;6.14;79.07;101237.09;2514709;28;20230;-79
2024/02/21 02:57:41;;;;;;;11.65;4.78;;;;;;;6.15;78.91;101231.06;2514894;28;20407;-79
2024/02/21 02:58:56;;;;;;;5.90;5.10;;;;;;;6.13;78.76;101231.03;2514964;28;20081;-79
2024/02/21 03:00:11;;;;;;;11.70;5.22;;;;;;;6.12;78.64;101224.13;2513870;28;20053;-79
2024/02/21 03:01:25;;;;;;;12.57;4.97;;;;;;;6.11;78.52;101232.72;2515492;28;20104;-79
2024/02/21 03:02:40;;;;;;;14.25;6.55;;;;;;;6.08;78.84;101230.94;2514822;28;20042;-80
2024/02/21 03:03:54;;;;;;;14.52;5.20;;;;;;;6.08;78.59;101227.47;2514501;28;20054;-78
2024/02/21 03:05:12;;;;;;;14.20;6.22;;;;;;;6.06;78.57;101222.25;2515170;28;20050;-78
2024/02/21 03:06:27;;;;;;;7.05;4.53;;;;;;;6.04;78.76;101218.78;2514419;28;20085;-78
2024/02/21 03:07:40;;;;;;;20.33;6.70;;;;;;;6.02;78.76;101222.19;2510140;28;20050;-78
2024/02/21 03:08:54;;;;;;;12.57;4.68;;;;;;;6.00;78.58;101209.19;2504711;28;20109;-79
2024/02/21 03:10:09;;;;;;;11.68;5.05;;;;;;;6.00;78.75;101211.78;2512812;28;20153;-79
2024/02/21 03:11:28;;;;;;;11.90;5.35;;;;;;;5.97;78.86;101210.88;2506433;28;20560;-79
2024/02/21 03:12:43;;;;;;;13.43;4.90;;;;;;;5.94;78.64;101201.31;2509659;28;20081;-79
2024/02/21 03:13:58;;;;;;;10.77;5.72;;;;;;;5.93;78.70;101206.44;2511214;28;20115;-79
2024/02/21 03:15:12;;;;;;;19.88;5.93;;;;;;;5.92;78.47;101196.91;2506425;28;20054;-79
2024/02/21 03:16:26;;;;;;;11.77;5.82;;;;;;;5.90;78.63;101182.19;2514647;28;20065;-79
2024/02/21 03:17:40;;;;;;;12.88;5.25;;;;;;;5.89;78.58;101192.56;2514844;28;20042;-78
2024/02/21 03:18:54;;;;;;;7.38;4.00;;;;;;;5.89;78.63;101189.97;2514891;28;20499;-79
2024/02/21 03:20:09;;;;;;;11.90;4.38;;;;;;;5.89;78.31;101196.00;2513890;28;20039;-80
2024/02/21 03:21:24;;;;;;;9.27;4.20;;;;;;;5.88;78.68;101202.00;2514814;28;20047;-79
2024/02/21 03:22:37;;;;;;;18.08;5.85;;;;;;;5.87;78.52;101197.69;2510870;28;20058;-79
2024/02/21 03:23:52;;;;;;;9.15;4.57;;;;;;;5.86;78.31;101197.66;2507105;28;20557;-78
2024/02/21 03:25:06;;;;;;;10.50;4.40;;;;;;;5.87;78.30;101197.69;2515473;28;20061;-79
2024/02/21 03:26:21;;;;;;;10.38;5.03;;;;;;;5.87;78.43;101197.69;2517140;28;20054;-79
2024/02/21 03:27:34;;;;;;;10.50;5.22;;;;;;;5.87;78.26;101196.81;2514899;28;20053;-78
2024/02/21 03:28:50;;;;;;;17.52;4.40;;;;;;;5.87;78.22;101197.69;2514762;28;20050;-79
2024/02/21 03:30:05;;;;;;;16.08;5.47;;;;;;;5.87;78.18;101189.06;2513999;28;20440;-79
2024/02/21 03:31:19;;;;;;;7.05;4.43;;;;;;;5.86;77.84;101192.47;2514312;28;20133;-79
2024/02/21 03:32:32;;;;;;;13.77;4.45;;;;;;;5.86;78.10;101184.69;2513526;28;20049;-79
2024/02/21 03:33:47;;;;;;;17.92;5.80;;;;;;;5.86;78.05;101187.28;2509949;28;20415;-79
2024/02/21 03:35:00;;;;;;;8.73;4.25;;;;;;;5.87;78.13;101183.88;2505178;28;20497;-79
2024/02/21 03:36:15;;;;;;;12.15;5.10;;;;;;;5.87;78.00;101184.75;2512323;28;20052;-79
2024/02/21 03:37:28;;;;;;;16.23;6.13;;;;;;;5.88;77.95;101177.84;2511979;28;20054;-80
2024/02/21 03:38:43;;;;;;;8.48;4.25;;;;;;;5.88;77.86;101177.84;2508865;28;20058;-78
2024/02/21 03:39:56;;;;;;;11.70;4.88;;;;;;;5.87;77.73;101183.88;2513961;28;20046;-79
2024/02/21 03:41:11;;;;;;;9.95;5.63;;;;;;;5.87;78.00;101182.16;2514093;28;20108;-78
2024/02/21 03:42:25;;;;;;;14.85;6.85;;;;;;;5.87;78.15;101181.28;2506270;28;20419;-79
2024/02/21 03:43:39;;;;;;;9.38;4.60;;;;;;;5.89;77.67;101175.28;2510060;28;20225;-79
2024/02/21 03:44:54;;;;;;;11.02;6.35;;;;;;;5.90;78.02;101176.16;2509618;28;20122;-79
2024/02/21 03:46:09;;;;;;;9.43;3.97;;;;;;;5.88;77.90;101177.84;2506812;28;20058;-79
2024/02/21 03:47:22;;;;;;;11.63;5.40;;;;;;;5.87;77.97;101170.91;2513962;28;20484;-79
2024/02/21 03:48:37;;;;;;;13.85;5.32;;;;;;;5.87;77.71;101168.34;2513274;28;20038;-80
2024/02/21 03:49:50;;;;;;;8.57;5.15;;;;;;;5.85;77.84;101173.47;2562906;23;20046;-77
2024/02/21 03:51:05;;;;;;;16.33;6.50;;;;;;;5.83;77.87;101172.56;2541502;28;20059;-79
2024/02/21 03:52:18;;;;;;;11.73;4.78;;;;;;;5.80;77.79;101169.06;2543185;28;20090;-79
2024/02/21 03:53:33;;;;;;;10.70;5.07;;;;;;;5.79;77.66;101173.38;2540609;28;20132;-79
2024/02/21 03:54:46;;;;;;;14.18;5.40;;;;;;;5.76;77.85;101167.25;2543420;28;20056;-79
2024/02/21 03:56:02;;;;;;;15.05;4.85;;;;;;;5.74;77.88;101174.13;2541227;28;20105;-79
2024/02/21 03:57:17;;;;;;;14.07;4.72;;;;;;;5.69;77.83;101177.47;2546292;28;20749;-79
2024/02/21 03:58:31;;;;;;;7.40;4.50;;;;;;;5.67;77.78;101178.28;2544626;28;20127;-78
2024/02/21 03:59:45;;;;;;;9.55;5.20;;;;;;;5.64;78.17;101184.28;2537598;28;20052;-78
2024/02/21 04:01:01;;;;;;;10.52;4.80;;;;;;;5.60;78.01;101181.59;2544424;28;20049;-78
2024/02/21 04:02:17;;;;;;;8.93;4.70;;;;;;;5.57;78.08;101187.59;2543698;28;20052;-79
2024/02/21 04:03:30;;;;;;;11.60;5.35;;;;;;;5.54;78.13;101184.06;2534406;28;20049;-79
2024/02/21 04:04:46;;;;;;;8.43;4.13;;;;;;;5.52;78.26;101183.16;2537528;28;20071;-79
2024/02/21 04:06:00;;;;;;;11.15;5.28;;;;;;;5.49;78.03;101183.97;2537072;28;20053;-79
2024/02/21 04:07:14;;;;;;;7.97;4.60;;;;;;;5.45;78.41;101175.28;2534672;28;20049;-78
2024/02/21 04:08:28;;;;;;;10.32;4.90;;;;;;;5.42;78.23;101185.59;2544089;28;20045;-79
2024/02/21 04:09:42;;;;;;;12.27;5.20;;;;;;;5.39;78.26;101187.22;2539881;28;20053;-78
2024/02/21 04:10:56;;;;;;;11.00;5.03;;;;;;;5.37;78.43;101191.47;2539736;28;20053;-79
2024/02/21 04:12:10;;;;;;;10.20;5.70;;;;;;;5.34;78.44;101194.00;2535492;28;20078;-78
2024/02/21 04:13:23;;;;;;;10.77;4.60;;;;;;;5.30;78.44;101189.63;2543686;28;20060;-79
2024/02/21 04:14:39;;;;;;;12.48;5.43;;;;;;;5.29;78.51;101190.44;2540502;28;20068;-79
2024/02/21 04:15:53;;;;;;;11.27;5.40;;;;;;;5.26;78.51;101191.25;2533771;28;20157;-78
2024/02/21 04:17:08;;;;;;;16.58;5.65;;;;;;;5.23;78.64;101192.06;2541075;28;20425;-79
2024/02/21 04:18:22;;;;;;;13.48;6.90;;;;;;;5.19;78.80;101190.25;2535883;28;20053;-79
2024/02/21 04:19:36;;;;;;;12.05;6.43;;;;;;;5.18;78.78;101185.03;2543502;28;20051;-80
2024/02/21 04:20:52;;;;;;;10.02;5.10;;;;;;;5.15;78.85;101182.38;2539127;28;20045;-79
2024/02/21 04:22:06;;;;;;;12.38;6.22;;;;;;;5.13;78.89;101184.06;2540597;28;20413;-80
2024/02/21 04:23:20;;;;;;;11.73;6.32;;;;;;;5.11;78.98;101181.47;2543364;28;20056;-81
2024/02/21 04:24:34;;;;;;;10.43;5.10;;;;;;;5.09;78.88;101185.72;2539933;28;20053;-79
2024/02/21 04:25:48;;;;;;;8.75;6.10;;;;;;;5.07;78.78;101187.41;2533224;28;20422;-79
2024/02/21 04:27:02;;;;;;;14.25;6.15;;;;;;;5.06;78.84;101177.00;2533751;28;20046;-79
2024/02/21 04:28:16;;;;;;;14.95;5.93;;;;;;;5.03;79.13;101180.38;2532990;28;20588;-80
2024/02/21 04:29:30;;;;;;;10.32;5.55;;;;;;;5.00;78.97;101178.59;2541559;28;20059;-79
2024/02/21 04:30:44;;;;;;;12.02;6.18;;;;;;;4.98;79.09;101185.50;2532429;28;20072;-77
2024/02/21 04:31:58;;;;;;;10.40;5.03;;;;;;;4.96;79.12;101181.97;2539165;28;20037;-79
2024/02/21 04:33:13;;;;;;;11.95;4.95;;;;;;;4.94;79.25;101183.66;2534993;28;20069;-78
2024/02/21 04:34:27;;;;;;;14.57;7.60;;;;;;;4.93;79.17;101181.03;2543356;28;20136;-79
2024/02/21 04:35:41;;;;;;;20.60;6.07;;;;;;;4.92;79.40;101176.69;2538809;28;20045;-79
2024/02/21 04:36:55;;;;;;;10.35;5.88;;;;;;;4.90;79.27;101175.78;2539089;28;20048;-79
2024/02/21 04:38:09;;;;;;;10.07;5.30;;;;;;;4.88;79.19;101161.94;2543129;28;20049;-80
2024/02/21 04:39:23;;;;;;;12.05;6.85;;;;;;;4.88;79.27;101165.41;2543522;28;20303;-80
2024/02/21 04:40:37;;;;;;;17.55;6.45;;;;;;;4.88;79.38;101169.69;2539492;28;20541;-79
2024/02/21 04:41:51;;;;;;;15.52;5.43;;;;;;;4.88;79.50;101167.09;2533944;28;20049;-79
2024/02/21 04:43:05;;;;;;;15.40;6.50;;;;;;;4.86;79.45;101169.69;2540317;28;20056;-77
2024/02/21 04:44:21;;;;;;;12.32;5.65;;;;;;;4.86;79.66;101158.47;2534596;28;20413;-80
2024/02/21 04:45:35;;;;;;;12.82;5.13;;;;;;;4.85;79.73;101156.69;2533245;28;20084;-80
2024/02/21 04:46:49;;;;;;;9.70;4.97;;;;;;;4.85;79.57;101162.75;2533736;28;20453;-80
2024/02/21 04:48:03;;;;;;;12.07;6.20;;;;;;;4.86;79.57;101161.06;2532506;28;20049;-79
2024/02/21 04:49:19;;;;;;;12.43;5.50;;;;;;;4.86;79.93;101159.34;2533176;28;20045;-77
2024/02/21 04:50:33;;;;;;;17.63;6.20;;;;;;;4.85;79.63;101162.75;2532964;28;20503;-79
2024/02/21 04:51:47;;;;;;;18.10;5.53;;;;;;;4.85;79.44;101154.13;2532366;28;20053;-77
2024/02/21 04:53:01;;;;;;;11.90;4.93;;;;;;;4.85;79.80;101156.69;2539877;28;20060;-79
2024/02/21 04:54:15;;;;;;;15.85;5.50;;;;;;;4.82;79.83;101148.03;2535130;28;20049;-78
2024/02/21 04:55:29;;;;;;;12.15;5.82;;;;;;;4.82;79.75;101145.44;2525670;28;20050;-80
2024/02/21 04:56:43;;;;;;;18.60;6.75;;;;;;;4.84;79.86;101152.38;2532348;28;20056;-78
2024/02/21 04:57:57;;;;;;;16.08;5.22;;;;;;;4.81;79.89;101141.13;2533729;28;20056;-79
2024/02/21 04:59:11;;;;;;;11.63;5.80;;;;;;;4.80;79.78;101141.06;2533004;28;20132;-80
2024/02/21 05:00:25;;;;;;;15.70;7.25;;;;;;;4.80;80.04;101138.47;2535718;28;20045;-79
2024/02/21 05:01:39;;;;;;;12.93;6.03;;;;;;;4.78;79.70;101124.69;2541677;28;20051;-78
2024/02/21 05:02:53;;;;;;;12.02;6.03;;;;;;;4.75;79.87;101125.47;2540600;28;20052;-80
2024/02/21 05:04:07;;;;;;;13.30;5.05;;;;;;;4.73;79.92;101121.97;2544490;28;20391;-78
2024/02/21 05:05:22;;;;;;;14.10;5.70;;;;;;;4.72;80.10;101115.03;2536599;28;20483;-80
2024/02/21 05:06:38;;;;;;;10.15;6.10;;;;;;;4.72;79.93;101109.88;2537806;28;20582;-80
2024/02/21 05:07:51;;;;;;;11.73;5.80;;;;;;;4.69;79.80;101116.69;2539499;28;20054;-80
2024/02/21 05:09:06;;;;;;;9.05;5.95;;;;;;;4.67;80.02;101108.88;2541218;28;20135;-79
2024/02/21 05:10:20;;;;;;;14.85;5.72;;;;;;;4.65;79.90;101110.59;2536558;28;20045;-79
2024/02/21 05:11:34;;;;;;;20.35;6.95;;;;;;;4.61;80.40;101106.19;2534308;28;20056;-79
2024/02/21 05:12:48;;;;;;;10.93;4.68;;;;;;;4.56;80.03;101110.38;2535127;28;20072;-80
2024/02/21 05:14:03;;;;;;;14.10;5.47;;;;;;;4.52;80.02;101104.25;2534852;28;20065;-79
2024/02/21 05:15:17;;;;;;;11.82;5.47;;;;;;;4.49;80.15;101106.78;2534841;28;20064;-78
2024/02/21 05:16:31;;;;;;;12.45;5.63;;;;;;;4.46;80.23;101103.25;2542803;28;20056;-79
2024/02/21 05:17:45;;;;;;;12.80;5.10;;;;;;;4.45;80.20;101104.09;2538686;28;20052;-78
2024/02/21 05:18:59;;;;;;;16.02;5.20;;;;;;;4.44;80.42;101100.63;2545329;28;20055;-79
2024/02/21 05:20:13;;;;;;;7.55;6.00;;;;;;;4.42;80.40;101104.03;2536660;28;20042;-79
2024/02/21 05:21:29;;;;;;;13.30;5.60;;;;;;;4.41;80.43;101104.84;2543769;28;20490;-79
2024/02/21 05:22:42;;;;;;;11.98;7.32;;;;;;;4.39;80.43;101099.66;2534574;28;20049;-79
2024/02/21 05:23:57;;;;;;;12.10;5.80;;;;;;;4.39;80.55;101099.66;2532120;28;20398;-78
2024/02/21 05:25:10;;;;;;;13.95;7.20;;;;;;;4.37;80.34;101101.31;2541969;28;20049;-79
2024/02/21 05:26:25;;;;;;;13.68;5.30;;;;;;;4.35;80.36;101096.09;2536141;28;20449;-78
2024/02/21 05:27:39;;;;;;;9.95;6.80;;;;;;;4.33;80.23;101102.94;2536908;28;20402;-79
2024/02/21 05:28:53;;;;;;;9.10;5.15;;;;;;;4.29;80.33;101101.13;2540028;28;20055;-79
2024/02/21 05:30:07;;;;;;;14.90;5.25;;;;;;;4.27;80.44;101100.22;2534298;28;20046;-79
2024/02/21 05:31:22;;;;;;;13.18;5.85;;;;;;;4.26;80.53;101103.66;2542737;28;20142;-80
2024/02/21 05:32:35;;;;;;;18.13;7.88;;;;;;;4.24;80.45;101100.16;2536399;28;20053;-80
2024/02/21 05:33:50;;;;;;;19.63;6.50;;;;;;;4.22;80.47;101098.38;2540850;28;20052;-80
2024/02/21 05:35:03;;;;;;;11.43;5.20;;;;;;;4.21;80.52;101107.84;2534187;28;20057;-78
2024/02/21 05:36:18;;;;;;;11.32;6.97;;;;;;;4.19;80.61;101101.75;2542835;28;20045;-80
2024/02/21 05:37:33;;;;;;;21.35;9.10;;;;;;;4.18;80.51;101104.28;2528347;28;20162;-79
2024/02/21 05:38:47;;;;;;;9.00;7.68;;;;;;;4.18;80.83;101110.31;2540868;28;20072;-77
2024/02/21 05:40:01;;;;;;;12.93;6.57;;;;;;;4.17;80.75;101102.53;2534201;28;20041;-79
2024/02/21 05:41:15;;;;;;;11.55;6.55;;;;;;;4.18;80.95;101107.72;2542213;28;20055;-80
2024/02/21 05:42:28;;;;;;;14.50;6.10;;;;;;;4.17;80.67;101108.56;2536739;28;20072;-78
2024/02/21 05:43:43;;;;;;;17.08;6.75;;;;;;;4.17;80.70;101102.53;2540437;28;20050;-78
2024/02/21 05:44:56;;;;;;;18.13;6.18;;;;;;;4.17;80.82;101098.25;2540402;28;20076;-79
2024/02/21 05:46:11;;;;;;;15.43;6.10;;;;;;;4.15;80.73;101084.41;2544353;28;20056;-80